sensor_id;sensor_type;location;lat;lon;timestamp;P1;durP1;ratioP1;P2;durP2;ratioP2
12663;SDS011;6396;58.490;15.528;2022-10-13T00:01:06;3.50;;;2.10;;
12663;SDS011;6396;58.490;15.528;2022-10-13T00:03:33;5.33;;;2.50;;
12663;SDS011;6396;58.490;15.528;2022-10-13T00:06:03;2.87;;;2.10;;
12663;SDS011;6396;58.490;15.528;2022-10-13T00:08:31;5.47;;;2.27;;
12663;SDS011;6396;58.490;15.528;2022-10-13T00:10:58;6.27;;;2.10;;
12663;SDS011;6396;58.490;15.528;2022-10-13T00:13:25;6.23;;;2.37;;
12663;SDS011;6396;58.490;15.528;2022-10-13T00:15:54;7.50;;;2.90;;
12663;SDS011;6396;58.490;15.528;2022-10-13T00:18:20;7.67;;;2.50;;
12663;SDS011;6396;58.490;15.528;2022-10-13T00:20:48;5.63;;;2.47;;
12663;SDS011;6396;58.490;15.528;2022-10-13T00:23:15;5.50;;;2.80;;
12663;SDS011;6396;58.490;15.528;2022-10-13T00:25:43;4.63;;;2.70;;
12663;SDS011;6396;58.490;15.528;2022-10-13T00:28:11;6.50;;;2.47;;
12663;SDS011;6396;58.490;15.528;2022-10-13T00:30:38;6.27;;;2.60;;
12663;SDS011;6396;58.490;15.528;2022-10-13T00:33:06;6.10;;;2.40;;
12663;SDS011;6396;58.490;15.528;2022-10-13T00:35:36;6.00;;;2.73;;
12663;SDS011;6396;58.490;15.528;2022-10-13T00:38:06;5.10;;;2.40;;
12663;SDS011;6396;58.490;15.528;2022-10-13T00:40:33;5.83;;;2.10;;
12663;SDS011;6396;58.490;15.528;2022-10-13T00:42:59;7.77;;;2.37;;
12663;SDS011;6396;58.490;15.528;2022-10-13T00:45:26;4.53;;;2.30;;
12663;SDS011;6396;58.490;15.528;2022-10-13T00:47:55;6.57;;;2.20;;
12663;SDS011;6396;58.490;15.528;2022-10-13T00:50:26;7.40;;;2.53;;
12663;SDS011;6396;58.490;15.528;2022-10-13T00:52:57;6.53;;;2.33;;
12663;SDS011;6396;58.490;15.528;2022-10-13T00:55:27;7.57;;;2.60;;
12663;SDS011;6396;58.490;15.528;2022-10-13T00:57:57;4.47;;;2.33;;
12663;SDS011;6396;58.490;15.528;2022-10-13T01:00:26;5.07;;;2.37;;
12663;SDS011;6396;58.490;15.528;2022-10-13T01:02:53;4.27;;;2.30;;
12663;SDS011;6396;58.490;15.528;2022-10-13T01:05:20;6.20;;;2.47;;
12663;SDS011;6396;58.490;15.528;2022-10-13T01:07:49;5.13;;;2.40;;
12663;SDS011;6396;58.490;15.528;2022-10-13T01:10:19;7.70;;;3.00;;
12663;SDS011;6396;58.490;15.528;2022-10-13T01:12:57;6.70;;;3.37;;
12663;SDS011;6396;58.490;15.528;2022-10-13T01:15:29;3.83;;;2.40;;
12663;SDS011;6396;58.490;15.528;2022-10-13T01:18:00;6.07;;;2.73;;
12663;SDS011;6396;58.490;15.528;2022-10-13T01:20:49;10.63;;;3.50;;
12663;SDS011;6396;58.490;15.528;2022-10-13T01:23:41;8.13;;;3.00;;
12663;SDS011;6396;58.490;15.528;2022-10-13T01:29:58;6.00;;;2.87;;
12663;SDS011;6396;58.490;15.528;2022-10-13T01:32:56;7.53;;;2.90;;
12663;SDS011;6396;58.490;15.528;2022-10-13T01:35:43;7.37;;;2.70;;
12663;SDS011;6396;58.490;15.528;2022-10-13T01:38:21;7.03;;;2.73;;
12663;SDS011;6396;58.490;15.528;2022-10-13T01:40:58;5.30;;;2.63;;
12663;SDS011;6396;58.490;15.528;2022-10-13T01:43:29;4.27;;;2.70;;
12663;SDS011;6396;58.490;15.528;2022-10-13T01:46:04;5.23;;;2.80;;
12663;SDS011;6396;58.490;15.528;2022-10-13T01:48:35;4.50;;;2.93;;
12663;SDS011;6396;58.490;15.528;2022-10-13T01:51:04;4.87;;;2.40;;
12663;SDS011;6396;58.490;15.528;2022-10-13T01:53:32;5.30;;;2.80;;
12663;SDS011;6396;58.490;15.528;2022-10-13T01:56:00;6.50;;;2.27;;
12663;SDS011;6396;58.490;15.528;2022-10-13T01:58:27;6.17;;;2.80;;
12663;SDS011;6396;58.490;15.528;2022-10-13T02:01:12;6.90;;;2.87;;
12663;SDS011;6396;58.490;15.528;2022-10-13T02:03:57;9.17;;;3.20;;
12663;SDS011;6396;58.490;15.528;2022-10-13T02:06:35;6.23;;;3.30;;
12663;SDS011;6396;58.490;15.528;2022-10-13T02:09:07;7.43;;;3.03;;
12663;SDS011;6396;58.490;15.528;2022-10-13T02:11:39;6.70;;;2.80;;
12663;SDS011;6396;58.490;15.528;2022-10-13T02:14:14;6.73;;;3.10;;
12663;SDS011;6396;58.490;15.528;2022-10-13T02:16:46;6.90;;;3.60;;
12663;SDS011;6396;58.490;15.528;2022-10-13T02:19:16;6.27;;;3.53;;
12663;SDS011;6396;58.490;15.528;2022-10-13T02:21:44;8.90;;;3.13;;
12663;SDS011;6396;58.490;15.528;2022-10-13T02:24:12;5.87;;;3.70;;
12663;SDS011;6396;58.490;15.528;2022-10-13T02:26:39;7.77;;;3.90;;
12663;SDS011;6396;58.490;15.528;2022-10-13T02:29:07;5.80;;;3.40;;
12663;SDS011;6396;58.490;15.528;2022-10-13T02:31:34;8.43;;;3.93;;
12663;SDS011;6396;58.490;15.528;2022-10-13T02:34:03;6.93;;;3.87;;
12663;SDS011;6396;58.490;15.528;2022-10-13T02:36:30;6.23;;;3.47;;
12663;SDS011;6396;58.490;15.528;2022-10-13T02:38:57;7.97;;;3.77;;
12663;SDS011;6396;58.490;15.528;2022-10-13T02:41:24;5.73;;;3.73;;
12663;SDS011;6396;58.490;15.528;2022-10-13T02:43:51;8.10;;;3.87;;
12663;SDS011;6396;58.490;15.528;2022-10-13T02:46:17;6.27;;;3.70;;
12663;SDS011;6396;58.490;15.528;2022-10-13T02:48:44;9.30;;;4.00;;
12663;SDS011;6396;58.490;15.528;2022-10-13T02:51:12;14.77;;;4.13;;
12663;SDS011;6396;58.490;15.528;2022-10-13T02:53:39;7.90;;;3.53;;
12663;SDS011;6396;58.490;15.528;2022-10-13T02:56:06;9.43;;;4.07;;
12663;SDS011;6396;58.490;15.528;2022-10-13T02:58:33;10.90;;;4.37;;
12663;SDS011;6396;58.490;15.528;2022-10-13T03:01:04;7.93;;;4.40;;
12663;SDS011;6396;58.490;15.528;2022-10-13T03:03:31;9.97;;;4.50;;
12663;SDS011;6396;58.490;15.528;2022-10-13T03:05:58;10.53;;;3.93;;
12663;SDS011;6396;58.490;15.528;2022-10-13T03:08:26;10.53;;;4.43;;
12663;SDS011;6396;58.490;15.528;2022-10-13T03:10:53;11.17;;;4.13;;
12663;SDS011;6396;58.490;15.528;2022-10-13T03:13:21;6.53;;;3.30;;
12663;SDS011;6396;58.490;15.528;2022-10-13T03:15:48;5.40;;;3.30;;
12663;SDS011;6396;58.490;15.528;2022-10-13T03:18:14;9.33;;;3.70;;
12663;SDS011;6396;58.490;15.528;2022-10-13T03:20:41;9.30;;;4.03;;
12663;SDS011;6396;58.490;15.528;2022-10-13T03:23:08;7.57;;;4.00;;
12663;SDS011;6396;58.490;15.528;2022-10-13T03:25:36;7.60;;;4.57;;
12663;SDS011;6396;58.490;15.528;2022-10-13T03:28:03;6.67;;;4.33;;
12663;SDS011;6396;58.490;15.528;2022-10-13T03:30:30;7.37;;;5.20;;
12663;SDS011;6396;58.490;15.528;2022-10-13T03:32:56;10.27;;;4.87;;
12663;SDS011;6396;58.490;15.528;2022-10-13T03:35:23;5.20;;;4.10;;
12663;SDS011;6396;58.490;15.528;2022-10-13T03:37:50;6.57;;;4.50;;
12663;SDS011;6396;58.490;15.528;2022-10-13T03:40:17;8.93;;;5.00;;
12663;SDS011;6396;58.490;15.528;2022-10-13T03:42:45;8.97;;;4.47;;
12663;SDS011;6396;58.490;15.528;2022-10-13T03:45:11;10.17;;;4.90;;
12663;SDS011;6396;58.490;15.528;2022-10-13T03:47:39;10.00;;;4.80;;
12663;SDS011;6396;58.490;15.528;2022-10-13T03:50:06;8.60;;;5.10;;
12663;SDS011;6396;58.490;15.528;2022-10-13T03:52:33;8.73;;;4.77;;
12663;SDS011;6396;58.490;15.528;2022-10-13T03:55:00;9.90;;;5.07;;
12663;SDS011;6396;58.490;15.528;2022-10-13T03:57:27;7.83;;;4.50;;
12663;SDS011;6396;58.490;15.528;2022-10-13T03:59:56;7.27;;;4.93;;
12663;SDS011;6396;58.490;15.528;2022-10-13T04:02:23;7.13;;;4.50;;
12663;SDS011;6396;58.490;15.528;2022-10-13T04:04:49;10.97;;;5.27;;
12663;SDS011;6396;58.490;15.528;2022-10-13T04:07:16;9.47;;;5.40;;
12663;SDS011;6396;58.490;15.528;2022-10-13T04:09:43;13.40;;;4.77;;
12663;SDS011;6396;58.490;15.528;2022-10-13T04:12:10;7.83;;;4.67;;
12663;SDS011;6396;58.490;15.528;2022-10-13T04:14:36;10.90;;;5.20;;
12663;SDS011;6396;58.490;15.528;2022-10-13T04:17:04;11.67;;;5.13;;
12663;SDS011;6396;58.490;15.528;2022-10-13T04:19:31;11.60;;;4.83;;
12663;SDS011;6396;58.490;15.528;2022-10-13T04:21:58;7.13;;;4.57;;
12663;SDS011;6396;58.490;15.528;2022-10-13T04:24:25;10.33;;;4.70;;
12663;SDS011;6396;58.490;15.528;2022-10-13T04:26:52;10.70;;;4.87;;
12663;SDS011;6396;58.490;15.528;2022-10-13T04:29:18;12.07;;;5.03;;
12663;SDS011;6396;58.490;15.528;2022-10-13T04:31:45;7.87;;;4.70;;
12663;SDS011;6396;58.490;15.528;2022-10-13T04:34:13;7.77;;;5.03;;
12663;SDS011;6396;58.490;15.528;2022-10-13T04:36:40;8.47;;;4.93;;
12663;SDS011;6396;58.490;15.528;2022-10-13T04:39:07;6.53;;;4.37;;
12663;SDS011;6396;58.490;15.528;2022-10-13T04:41:34;12.00;;;5.03;;
12663;SDS011;6396;58.490;15.528;2022-10-13T04:44:01;10.13;;;5.30;;
12663;SDS011;6396;58.490;15.528;2022-10-13T04:46:27;10.87;;;5.57;;
12663;SDS011;6396;58.490;15.528;2022-10-13T04:48:54;11.93;;;5.40;;
12663;SDS011;6396;58.490;15.528;2022-10-13T04:51:23;6.47;;;5.20;;
12663;SDS011;6396;58.490;15.528;2022-10-13T04:53:54;12.37;;;5.60;;
12663;SDS011;6396;58.490;15.528;2022-10-13T04:56:21;10.03;;;5.73;;
12663;SDS011;6396;58.490;15.528;2022-10-13T04:58:48;9.83;;;5.43;;
12663;SDS011;6396;58.490;15.528;2022-10-13T05:01:16;11.37;;;5.43;;
12663;SDS011;6396;58.490;15.528;2022-10-13T05:03:43;11.73;;;5.80;;
12663;SDS011;6396;58.490;15.528;2022-10-13T05:06:14;13.37;;;5.20;;
12663;SDS011;6396;58.490;15.528;2022-10-13T05:08:43;12.10;;;5.53;;
12663;SDS011;6396;58.490;15.528;2022-10-13T05:11:10;10.43;;;5.73;;
12663;SDS011;6396;58.490;15.528;2022-10-13T05:13:37;14.70;;;5.50;;
12663;SDS011;6396;58.490;15.528;2022-10-13T05:16:07;8.23;;;5.07;;
12663;SDS011;6396;58.490;15.528;2022-10-13T05:18:35;11.10;;;5.40;;
12663;SDS011;6396;58.490;15.528;2022-10-13T05:21:05;9.70;;;5.60;;
12663;SDS011;6396;58.490;15.528;2022-10-13T05:23:33;9.10;;;5.37;;
12663;SDS011;6396;58.490;15.528;2022-10-13T05:26:02;8.03;;;4.80;;
12663;SDS011;6396;58.490;15.528;2022-10-13T05:28:30;10.03;;;5.10;;
12663;SDS011;6396;58.490;15.528;2022-10-13T05:30:56;10.73;;;5.47;;
12663;SDS011;6396;58.490;15.528;2022-10-13T05:33:33;15.77;;;5.57;;
12663;SDS011;6396;58.490;15.528;2022-10-13T05:36:01;13.33;;;5.73;;
12663;SDS011;6396;58.490;15.528;2022-10-13T05:38:29;7.33;;;4.87;;
12663;SDS011;6396;58.490;15.528;2022-10-13T05:41:00;7.80;;;5.60;;
12663;SDS011;6396;58.490;15.528;2022-10-13T05:43:28;10.67;;;5.80;;
12663;SDS011;6396;58.490;15.528;2022-10-13T05:45:56;15.20;;;5.60;;
12663;SDS011;6396;58.490;15.528;2022-10-13T05:48:22;10.27;;;5.30;;
12663;SDS011;6396;58.490;15.528;2022-10-13T05:50:49;8.03;;;4.30;;
12663;SDS011;6396;58.490;15.528;2022-10-13T05:53:17;13.30;;;6.47;;
12663;SDS011;6396;58.490;15.528;2022-10-13T05:55:44;10.57;;;5.17;;
12663;SDS011;6396;58.490;15.528;2022-10-13T05:58:11;8.43;;;5.00;;
12663;SDS011;6396;58.490;15.528;2022-10-13T06:00:40;10.10;;;5.33;;
12663;SDS011;6396;58.490;15.528;2022-10-13T06:03:09;7.23;;;4.93;;
12663;SDS011;6396;58.490;15.528;2022-10-13T06:05:39;10.77;;;5.23;;
12663;SDS011;6396;58.490;15.528;2022-10-13T06:08:09;9.57;;;5.37;;
12663;SDS011;6396;58.490;15.528;2022-10-13T06:10:36;10.07;;;5.03;;
12663;SDS011;6396;58.490;15.528;2022-10-13T06:13:03;9.33;;;4.90;;
12663;SDS011;6396;58.490;15.528;2022-10-13T06:15:29;10.87;;;4.87;;
12663;SDS011;6396;58.490;15.528;2022-10-13T06:17:58;10.70;;;5.03;;
12663;SDS011;6396;58.490;15.528;2022-10-13T06:20:25;9.67;;;5.60;;
12663;SDS011;6396;58.490;15.528;2022-10-13T06:22:52;11.80;;;5.20;;
12663;SDS011;6396;58.490;15.528;2022-10-13T06:25:19;7.13;;;4.90;;
12663;SDS011;6396;58.490;15.528;2022-10-13T06:27:46;8.80;;;4.63;;
12663;SDS011;6396;58.490;15.528;2022-10-13T06:30:13;10.30;;;4.70;;
12663;SDS011;6396;58.490;15.528;2022-10-13T06:32:40;8.87;;;4.93;;
12663;SDS011;6396;58.490;15.528;2022-10-13T06:35:08;9.07;;;5.43;;
12663;SDS011;6396;58.490;15.528;2022-10-13T06:37:35;15.93;;;5.17;;
12663;SDS011;6396;58.490;15.528;2022-10-13T06:40:02;8.67;;;4.60;;
12663;SDS011;6396;58.490;15.528;2022-10-13T06:42:29;5.03;;;4.37;;
12663;SDS011;6396;58.490;15.528;2022-10-13T06:44:58;7.40;;;4.87;;
12663;SDS011;6396;58.490;15.528;2022-10-13T06:47:24;10.23;;;5.10;;
12663;SDS011;6396;58.490;15.528;2022-10-13T06:49:51;8.20;;;5.07;;
12663;SDS011;6396;58.490;15.528;2022-10-13T06:52:19;9.03;;;4.73;;
12663;SDS011;6396;58.490;15.528;2022-10-13T06:54:46;10.27;;;4.67;;
12663;SDS011;6396;58.490;15.528;2022-10-13T06:57:13;8.43;;;4.63;;
12663;SDS011;6396;58.490;15.528;2022-10-13T06:59:40;8.83;;;4.73;;
12663;SDS011;6396;58.490;15.528;2022-10-13T07:02:08;11.00;;;5.43;;
12663;SDS011;6396;58.490;15.528;2022-10-13T07:04:35;10.17;;;5.03;;
12663;SDS011;6396;58.490;15.528;2022-10-13T07:07:02;10.47;;;4.50;;
12663;SDS011;6396;58.490;15.528;2022-10-13T07:09:31;9.07;;;4.80;;
12663;SDS011;6396;58.490;15.528;2022-10-13T07:11:58;10.53;;;4.67;;
12663;SDS011;6396;58.490;15.528;2022-10-13T07:14:24;7.93;;;4.20;;
12663;SDS011;6396;58.490;15.528;2022-10-13T07:16:51;6.57;;;4.27;;
12663;SDS011;6396;58.490;15.528;2022-10-13T07:19:18;9.27;;;4.63;;
12663;SDS011;6396;58.490;15.528;2022-10-13T07:21:45;7.90;;;4.30;;
12663;SDS011;6396;58.490;15.528;2022-10-13T07:24:12;8.87;;;4.37;;
12663;SDS011;6396;58.490;15.528;2022-10-13T07:26:40;7.90;;;4.00;;
12663;SDS011;6396;58.490;15.528;2022-10-13T07:29:07;10.37;;;4.50;;
12663;SDS011;6396;58.490;15.528;2022-10-13T07:31:34;11.03;;;4.70;;
12663;SDS011;6396;58.490;15.528;2022-10-13T07:34:00;9.13;;;4.37;;
12663;SDS011;6396;58.490;15.528;2022-10-13T07:36:29;9.37;;;4.30;;
12663;SDS011;6396;58.490;15.528;2022-10-13T07:38:56;8.77;;;4.53;;
12663;SDS011;6396;58.490;15.528;2022-10-13T07:41:23;8.03;;;3.93;;
12663;SDS011;6396;58.490;15.528;2022-10-13T07:43:54;7.33;;;4.23;;
12663;SDS011;6396;58.490;15.528;2022-10-13T07:46:21;7.43;;;4.37;;
12663;SDS011;6396;58.490;15.528;2022-10-13T07:48:50;7.97;;;3.97;;
12663;SDS011;6396;58.490;15.528;2022-10-13T07:51:17;5.90;;;3.73;;
12663;SDS011;6396;58.490;15.528;2022-10-13T07:53:44;6.47;;;3.90;;
12663;SDS011;6396;58.490;15.528;2022-10-13T07:56:11;6.47;;;4.00;;
12663;SDS011;6396;58.490;15.528;2022-10-13T07:58:40;5.57;;;3.50;;
12663;SDS011;6396;58.490;15.528;2022-10-13T08:01:10;6.70;;;3.80;;
12663;SDS011;6396;58.490;15.528;2022-10-13T08:03:38;8.40;;;4.17;;
12663;SDS011;6396;58.490;15.528;2022-10-13T08:06:05;6.23;;;3.63;;
12663;SDS011;6396;58.490;15.528;2022-10-13T08:08:33;5.70;;;3.47;;
12663;SDS011;6396;58.490;15.528;2022-10-13T08:11:00;8.80;;;3.60;;
12663;SDS011;6396;58.490;15.528;2022-10-13T08:13:27;6.30;;;3.97;;
12663;SDS011;6396;58.490;15.528;2022-10-13T08:15:54;7.50;;;3.37;;
12663;SDS011;6396;58.490;15.528;2022-10-13T08:18:26;8.23;;;3.33;;
12663;SDS011;6396;58.490;15.528;2022-10-13T08:20:53;6.90;;;3.60;;
12663;SDS011;6396;58.490;15.528;2022-10-13T08:23:19;8.73;;;3.80;;
12663;SDS011;6396;58.490;15.528;2022-10-13T08:25:46;7.10;;;4.03;;
12663;SDS011;6396;58.490;15.528;2022-10-13T08:28:14;8.33;;;3.93;;
12663;SDS011;6396;58.490;15.528;2022-10-13T08:30:43;6.70;;;4.13;;
12663;SDS011;6396;58.490;15.528;2022-10-13T08:33:10;9.23;;;4.20;;
12663;SDS011;6396;58.490;15.528;2022-10-13T08:35:38;8.07;;;4.00;;
12663;SDS011;6396;58.490;15.528;2022-10-13T08:38:06;10.83;;;3.90;;
12663;SDS011;6396;58.490;15.528;2022-10-13T08:40:33;9.13;;;4.17;;
12663;SDS011;6396;58.490;15.528;2022-10-13T08:43:04;7.70;;;3.80;;
12663;SDS011;6396;58.490;15.528;2022-10-13T08:45:32;8.73;;;4.23;;
12663;SDS011;6396;58.490;15.528;2022-10-13T08:48:00;11.90;;;4.50;;
12663;SDS011;6396;58.490;15.528;2022-10-13T08:50:31;8.40;;;4.23;;
12663;SDS011;6396;58.490;15.528;2022-10-13T08:53:03;6.00;;;3.63;;
12663;SDS011;6396;58.490;15.528;2022-10-13T08:55:34;7.63;;;3.93;;
12663;SDS011;6396;58.490;15.528;2022-10-13T08:58:08;8.03;;;3.70;;
12663;SDS011;6396;58.490;15.528;2022-10-13T09:00:38;6.80;;;3.83;;
12663;SDS011;6396;58.490;15.528;2022-10-13T09:03:14;10.67;;;4.43;;
12663;SDS011;6396;58.490;15.528;2022-10-13T09:05:50;10.23;;;4.23;;
12663;SDS011;6396;58.490;15.528;2022-10-13T09:08:27;8.50;;;4.20;;
12663;SDS011;6396;58.490;15.528;2022-10-13T09:11:01;10.17;;;4.30;;
12663;SDS011;6396;58.490;15.528;2022-10-13T09:13:28;6.83;;;4.10;;
12663;SDS011;6396;58.490;15.528;2022-10-13T09:15:55;8.27;;;4.20;;
12663;SDS011;6396;58.490;15.528;2022-10-13T09:18:26;7.53;;;3.90;;
12663;SDS011;6396;58.490;15.528;2022-10-13T09:23:49;8.77;;;3.70;;
12663;SDS011;6396;58.490;15.528;2022-10-13T09:26:19;7.83;;;3.60;;
12663;SDS011;6396;58.490;15.528;2022-10-13T09:28:48;10.67;;;4.07;;
12663;SDS011;6396;58.490;15.528;2022-10-13T09:31:16;8.30;;;4.03;;
12663;SDS011;6396;58.490;15.528;2022-10-13T09:33:46;7.57;;;3.33;;
12663;SDS011;6396;58.490;15.528;2022-10-13T09:36:22;8.43;;;4.03;;
12663;SDS011;6396;58.490;15.528;2022-10-13T09:39:05;9.70;;;3.87;;
12663;SDS011;6396;58.490;15.528;2022-10-13T09:41:34;8.97;;;3.80;;
12663;SDS011;6396;58.490;15.528;2022-10-13T09:44:08;9.23;;;3.27;;
12663;SDS011;6396;58.490;15.528;2022-10-13T09:46:38;7.33;;;3.33;;
12663;SDS011;6396;58.490;15.528;2022-10-13T09:49:32;8.10;;;3.37;;
12663;SDS011;6396;58.490;15.528;2022-10-13T09:52:02;6.87;;;3.70;;
12663;SDS011;6396;58.490;15.528;2022-10-13T09:54:36;13.80;;;4.23;;
12663;SDS011;6396;58.490;15.528;2022-10-13T09:57:11;5.23;;;3.90;;
12663;SDS011;6396;58.490;15.528;2022-10-13T09:59:42;7.23;;;3.60;;
12663;SDS011;6396;58.490;15.528;2022-10-13T10:02:14;10.97;;;3.93;;
12663;SDS011;6396;58.490;15.528;2022-10-13T10:04:48;6.50;;;3.33;;
12663;SDS011;6396;58.490;15.528;2022-10-13T10:07:16;6.97;;;3.40;;
12663;SDS011;6396;58.490;15.528;2022-10-13T10:09:48;8.17;;;3.47;;
12663;SDS011;6396;58.490;15.528;2022-10-13T10:12:19;9.13;;;3.57;;
12663;SDS011;6396;58.490;15.528;2022-10-13T10:14:48;5.90;;;3.27;;
12663;SDS011;6396;58.490;15.528;2022-10-13T10:17:16;11.27;;;3.60;;
12663;SDS011;6396;58.490;15.528;2022-10-13T10:19:49;7.13;;;3.67;;
12663;SDS011;6396;58.490;15.528;2022-10-13T10:22:29;8.30;;;3.70;;
12663;SDS011;6396;58.490;15.528;2022-10-13T10:25:09;5.70;;;3.10;;
12663;SDS011;6396;58.490;15.528;2022-10-13T10:27:51;7.10;;;3.60;;
12663;SDS011;6396;58.490;15.528;2022-10-13T10:30:31;7.90;;;3.70;;
12663;SDS011;6396;58.490;15.528;2022-10-13T10:33:03;6.30;;;3.50;;
12663;SDS011;6396;58.490;15.528;2022-10-13T10:35:37;7.77;;;3.17;;
12663;SDS011;6396;58.490;15.528;2022-10-13T10:38:14;7.57;;;3.43;;
12663;SDS011;6396;58.490;15.528;2022-10-13T10:40:55;10.03;;;3.90;;
12663;SDS011;6396;58.490;15.528;2022-10-13T10:43:34;8.53;;;3.00;;
12663;SDS011;6396;58.490;15.528;2022-10-13T10:46:20;8.00;;;3.13;;
12663;SDS011;6396;58.490;15.528;2022-10-13T10:48:50;8.17;;;3.07;;
12663;SDS011;6396;58.490;15.528;2022-10-13T10:51:23;5.57;;;2.83;;
12663;SDS011;6396;58.490;15.528;2022-10-13T10:53:57;5.07;;;2.80;;
12663;SDS011;6396;58.490;15.528;2022-10-13T10:56:38;7.80;;;3.57;;
12663;SDS011;6396;58.490;15.528;2022-10-13T10:59:13;5.93;;;2.97;;
12663;SDS011;6396;58.490;15.528;2022-10-13T11:01:48;7.57;;;2.90;;
12663;SDS011;6396;58.490;15.528;2022-10-13T11:04:35;6.27;;;2.77;;
12663;SDS011;6396;58.490;15.528;2022-10-13T11:07:08;6.83;;;3.13;;
12663;SDS011;6396;58.490;15.528;2022-10-13T11:12:47;8.17;;;3.17;;
12663;SDS011;6396;58.490;15.528;2022-10-13T11:15:46;6.63;;;2.70;;
12663;SDS011;6396;58.490;15.528;2022-10-13T11:21:17;6.50;;;2.70;;
12663;SDS011;6396;58.490;15.528;2022-10-13T11:23:44;6.97;;;2.70;;
12663;SDS011;6396;58.490;15.528;2022-10-13T11:26:31;6.70;;;2.83;;
12663;SDS011;6396;58.490;15.528;2022-10-13T11:29:49;7.07;;;2.60;;
12663;SDS011;6396;58.490;15.528;2022-10-13T11:35:20;5.90;;;2.93;;
12663;SDS011;6396;58.490;15.528;2022-10-13T11:38:02;6.27;;;3.07;;
12663;SDS011;6396;58.490;15.528;2022-10-13T11:40:43;7.60;;;2.77;;
12663;SDS011;6396;58.490;15.528;2022-10-13T11:43:29;9.23;;;2.93;;
12663;SDS011;6396;58.490;15.528;2022-10-13T11:46:26;10.83;;;3.23;;
12663;SDS011;6396;58.490;15.528;2022-10-13T11:52:20;7.20;;;2.57;;
12663;SDS011;6396;58.490;15.528;2022-10-13T11:54:59;5.60;;;2.73;;
12663;SDS011;6396;58.490;15.528;2022-10-13T11:57:29;6.87;;;3.30;;
12663;SDS011;6396;58.490;15.528;2022-10-13T11:59:57;6.53;;;3.00;;
12663;SDS011;6396;58.490;15.528;2022-10-13T12:02:25;5.47;;;3.00;;
12663;SDS011;6396;58.490;15.528;2022-10-13T12:05:00;6.10;;;2.70;;
12663;SDS011;6396;58.490;15.528;2022-10-13T12:07:30;6.47;;;2.80;;
12663;SDS011;6396;58.490;15.528;2022-10-13T12:09:59;8.27;;;2.93;;
12663;SDS011;6396;58.490;15.528;2022-10-13T12:12:27;9.37;;;2.90;;
12663;SDS011;6396;58.490;15.528;2022-10-13T12:14:54;9.00;;;2.93;;
12663;SDS011;6396;58.490;15.528;2022-10-13T12:17:23;6.50;;;3.07;;
12663;SDS011;6396;58.490;15.528;2022-10-13T12:19:56;5.13;;;2.83;;
12663;SDS011;6396;58.490;15.528;2022-10-13T12:22:26;6.00;;;3.37;;
12663;SDS011;6396;58.490;15.528;2022-10-13T12:24:57;6.97;;;3.07;;
12663;SDS011;6396;58.490;15.528;2022-10-13T12:27:25;7.30;;;2.90;;
12663;SDS011;6396;58.490;15.528;2022-10-13T12:29:53;6.13;;;2.50;;
12663;SDS011;6396;58.490;15.528;2022-10-13T12:32:21;7.70;;;2.63;;
12663;SDS011;6396;58.490;15.528;2022-10-13T12:34:50;9.50;;;3.07;;
12663;SDS011;6396;58.490;15.528;2022-10-13T12:37:20;7.60;;;3.60;;
12663;SDS011;6396;58.490;15.528;2022-10-13T12:39:52;8.47;;;2.80;;
12663;SDS011;6396;58.490;15.528;2022-10-13T12:42:22;6.63;;;3.20;;
12663;SDS011;6396;58.490;15.528;2022-10-13T12:44:53;7.07;;;2.70;;
12663;SDS011;6396;58.490;15.528;2022-10-13T12:47:34;7.57;;;2.47;;
12663;SDS011;6396;58.490;15.528;2022-10-13T12:50:27;7.33;;;2.90;;
12663;SDS011;6396;58.490;15.528;2022-10-13T12:53:03;6.20;;;2.83;;
12663;SDS011;6396;58.490;15.528;2022-10-13T12:55:35;7.17;;;2.83;;
12663;SDS011;6396;58.490;15.528;2022-10-13T12:58:15;7.80;;;2.73;;
12663;SDS011;6396;58.490;15.528;2022-10-13T13:00:53;4.87;;;2.80;;
12663;SDS011;6396;58.490;15.528;2022-10-13T13:03:22;8.23;;;2.70;;
12663;SDS011;6396;58.490;15.528;2022-10-13T13:06:07;7.90;;;3.10;;
12663;SDS011;6396;58.490;15.528;2022-10-13T13:08:35;6.13;;;2.40;;
12663;SDS011;6396;58.490;15.528;2022-10-13T13:11:03;6.47;;;2.80;;
12663;SDS011;6396;58.490;15.528;2022-10-13T13:13:31;9.60;;;2.97;;
12663;SDS011;6396;58.490;15.528;2022-10-13T13:16:11;6.40;;;2.80;;
12663;SDS011;6396;58.490;15.528;2022-10-13T13:18:40;5.93;;;2.67;;
12663;SDS011;6396;58.490;15.528;2022-10-13T13:21:10;7.40;;;3.00;;
12663;SDS011;6396;58.490;15.528;2022-10-13T13:23:38;9.33;;;3.50;;
12663;SDS011;6396;58.490;15.528;2022-10-13T13:26:09;5.70;;;2.53;;
12663;SDS011;6396;58.490;15.528;2022-10-13T13:28:39;6.60;;;2.70;;
12663;SDS011;6396;58.490;15.528;2022-10-13T13:31:10;8.57;;;3.03;;
12663;SDS011;6396;58.490;15.528;2022-10-13T13:33:37;6.60;;;2.80;;
12663;SDS011;6396;58.490;15.528;2022-10-13T13:36:04;6.20;;;2.70;;
12663;SDS011;6396;58.490;15.528;2022-10-13T13:38:41;6.87;;;3.17;;
12663;SDS011;6396;58.490;15.528;2022-10-13T13:41:08;5.90;;;2.67;;
12663;SDS011;6396;58.490;15.528;2022-10-13T13:43:36;6.50;;;2.83;;
12663;SDS011;6396;58.490;15.528;2022-10-13T13:46:03;8.03;;;2.77;;
12663;SDS011;6396;58.490;15.528;2022-10-13T13:50:58;7.83;;;3.03;;
12663;SDS011;6396;58.490;15.528;2022-10-13T13:53:26;7.93;;;2.73;;
12663;SDS011;6396;58.490;15.528;2022-10-13T13:55:53;9.30;;;3.10;;
12663;SDS011;6396;58.490;15.528;2022-10-13T13:58:20;7.17;;;3.17;;
12663;SDS011;6396;58.490;15.528;2022-10-13T14:00:47;6.63;;;2.90;;
12663;SDS011;6396;58.490;15.528;2022-10-13T14:03:13;8.07;;;4.07;;
12663;SDS011;6396;58.490;15.528;2022-10-13T14:05:40;7.83;;;3.30;;
12663;SDS011;6396;58.490;15.528;2022-10-13T14:08:07;6.67;;;2.90;;
12663;SDS011;6396;58.490;15.528;2022-10-13T14:10:37;5.57;;;3.60;;
12663;SDS011;6396;58.490;15.528;2022-10-13T14:13:05;7.33;;;3.13;;
12663;SDS011;6396;58.490;15.528;2022-10-13T14:15:31;6.37;;;3.20;;
12663;SDS011;6396;58.490;15.528;2022-10-13T14:17:58;8.10;;;3.60;;
12663;SDS011;6396;58.490;15.528;2022-10-13T14:20:25;6.67;;;3.23;;
12663;SDS011;6396;58.490;15.528;2022-10-13T14:22:52;6.97;;;3.10;;
12663;SDS011;6396;58.490;15.528;2022-10-13T14:25:18;8.40;;;3.20;;
12663;SDS011;6396;58.490;15.528;2022-10-13T14:27:47;7.90;;;3.17;;
12663;SDS011;6396;58.490;15.528;2022-10-13T14:30:13;7.73;;;3.50;;
12663;SDS011;6396;58.490;15.528;2022-10-13T14:32:40;7.60;;;3.70;;
12663;SDS011;6396;58.490;15.528;2022-10-13T14:35:07;8.63;;;3.73;;
12663;SDS011;6396;58.490;15.528;2022-10-13T14:37:34;9.50;;;3.77;;
12663;SDS011;6396;58.490;15.528;2022-10-13T14:40:01;6.10;;;3.00;;
12663;SDS011;6396;58.490;15.528;2022-10-13T14:42:28;6.00;;;3.27;;
12663;SDS011;6396;58.490;15.528;2022-10-13T14:44:56;5.53;;;2.80;;
12663;SDS011;6396;58.490;15.528;2022-10-13T14:47:22;7.07;;;3.20;;
12663;SDS011;6396;58.490;15.528;2022-10-13T14:49:49;5.40;;;3.13;;
12663;SDS011;6396;58.490;15.528;2022-10-13T14:52:16;5.73;;;3.40;;
12663;SDS011;6396;58.490;15.528;2022-10-13T14:54:43;6.67;;;3.20;;
12663;SDS011;6396;58.490;15.528;2022-10-13T14:57:09;5.93;;;3.00;;
12663;SDS011;6396;58.490;15.528;2022-10-13T14:59:39;6.80;;;3.73;;
12663;SDS011;6396;58.490;15.528;2022-10-13T15:02:08;5.93;;;3.30;;
12663;SDS011;6396;58.490;15.528;2022-10-13T15:04:35;8.00;;;3.10;;
12663;SDS011;6396;58.490;15.528;2022-10-13T15:07:02;5.03;;;3.20;;
12663;SDS011;6396;58.490;15.528;2022-10-13T15:09:29;8.87;;;3.40;;
12663;SDS011;6396;58.490;15.528;2022-10-13T15:11:56;6.83;;;2.97;;
12663;SDS011;6396;58.490;15.528;2022-10-13T15:14:23;8.47;;;3.60;;
12663;SDS011;6396;58.490;15.528;2022-10-13T15:16:50;7.43;;;3.47;;
12663;SDS011;6396;58.490;15.528;2022-10-13T15:19:18;7.57;;;3.50;;
12663;SDS011;6396;58.490;15.528;2022-10-13T15:21:45;10.80;;;3.67;;
12663;SDS011;6396;58.490;15.528;2022-10-13T15:24:12;5.10;;;2.77;;